sensor_id;sensor_type;location;lat;lon;timestamp;temperature;humidity
35027;DHT22;60696;51.426;6.934;2023-07-09T04:01:57;22.60;93.80
35027;DHT22;60696;51.426;6.934;2023-07-09T04:04:22;22.60;94.00
35027;DHT22;60696;51.426;6.934;2023-07-09T04:06:48;22.60;93.90
35027;DHT22;60696;51.426;6.934;2023-07-09T04:09:13;22.70;94.60
35027;DHT22;60696;51.426;6.934;2023-07-09T04:11:39;22.80;93.30
35027;DHT22;60696;51.426;6.934;2023-07-09T04:14:05;22.80;93.40
35027;DHT22;60696;51.426;6.934;2023-07-09T04:16:32;22.80;93.30
35027;DHT22;60696;51.426;6.934;2023-07-09T04:18:58;22.90;93.50
35027;DHT22;60696;51.426;6.934;2023-07-09T04:21:23;23.00;93.40
35027;DHT22;60696;51.426;6.934;2023-07-09T04:23:49;23.00;93.70
35027;DHT22;60696;51.426;6.934;2023-07-09T04:26:14;23.10;93.40
35027;DHT22;60696;51.426;6.934;2023-07-09T04:28:40;23.10;94.20
35027;DHT22;60696;51.426;6.934;2023-07-09T04:31:05;23.20;93.10
35027;DHT22;60696;51.426;6.934;2023-07-09T04:33:31;23.20;93.00
35027;DHT22;60696;51.426;6.934;2023-07-09T04:35:59;23.20;93.20
35027;DHT22;60696;51.426;6.934;2023-07-09T04:38:25;23.30;93.10
35027;DHT22;60696;51.426;6.934;2023-07-09T04:40:50;23.40;93.60
35027;DHT22;60696;51.426;6.934;2023-07-09T04:43:16;23.40;93.10
35027;DHT22;60696;51.426;6.934;2023-07-09T04:45:41;23.40;92.70
35027;DHT22;60696;51.426;6.934;2023-07-09T04:48:07;23.70;92.70
35027;DHT22;60696;51.426;6.934;2023-07-09T04:50:33;23.80;92.90
35027;DHT22;60696;51.426;6.934;2023-07-09T04:52:59;24.00;91.90
35027;DHT22;60696;51.426;6.934;2023-07-09T04:55:25;24.20;90.70
35027;DHT22;60696;51.426;6.934;2023-07-09T04:57:52;24.80;89.20
35027;DHT22;60696;51.426;6.934;2023-07-09T05:00:18;25.30;83.20
35027;DHT22;60696;51.426;6.934;2023-07-09T05:02:43;25.60;83.00
35027;DHT22;60696;51.426;6.934;2023-07-09T05:05:09;25.80;79.00
35027;DHT22;60696;51.426;6.934;2023-07-09T05:07:36;26.10;76.80
35027;DHT22;60696;51.426;6.934;2023-07-09T05:10:02;26.30;75.30
35027;DHT22;60696;51.426;6.934;2023-07-09T05:12:27;26.60;73.10
35027;DHT22;60696;51.426;6.934;2023-07-09T05:14:55;27.10;71.40
35027;DHT22;60696;51.426;6.934;2023-07-09T05:17:22;27.00;70.00
35027;DHT22;60696;51.426;6.934;2023-07-09T05:19:49;26.80;70.40
35027;DHT22;60696;51.426;6.934;2023-07-09T05:22:15;26.90;70.60
35027;DHT22;60696;51.426;6.934;2023-07-09T05:24:40;27.30;71.60
35027;DHT22;60696;51.426;6.934;2023-07-09T05:27:06;27.70;67.90
35027;DHT22;60696;51.426;6.934;2023-07-09T05:29:32;28.30;64.30
35027;DHT22;60696;51.426;6.934;2023-07-09T05:31:58;28.30;66.60
35027;DHT22;60696;51.426;6.934;2023-07-09T05:34:23;28.40;62.40
35027;DHT22;60696;51.426;6.934;2023-07-09T05:36:49;28.00;63.10
35027;DHT22;60696;51.426;6.934;2023-07-09T05:39:14;27.80;64.40
35027;DHT22;60696;51.426;6.934;2023-07-09T05:41:41;28.20;64.50
35027;DHT22;60696;51.426;6.934;2023-07-09T05:44:07;28.80;61.30
35027;DHT22;60696;51.426;6.934;2023-07-09T05:46:36;28.90;61.30
35027;DHT22;60696;51.426;6.934;2023-07-09T05:49:03;29.70;60.70
35027;DHT22;60696;51.426;6.934;2023-07-09T05:51:30;30.10;58.00
35027;DHT22;60696;51.426;6.934;2023-07-09T05:53:55;30.30;55.90
35027;DHT22;60696;51.426;6.934;2023-07-09T05:56:21;30.30;55.60
35027;DHT22;60696;51.426;6.934;2023-07-09T05:58:47;30.00;56.50
35027;DHT22;60696;51.426;6.934;2023-07-09T06:01:12;29.70;57.00
35027;DHT22;60696;51.426;6.934;2023-07-09T06:03:38;29.70;55.70
35027;DHT22;60696;51.426;6.934;2023-07-09T06:06:05;29.50;56.30
35027;DHT22;60696;51.426;6.934;2023-07-09T06:08:32;29.50;56.20
35027;DHT22;60696;51.426;6.934;2023-07-09T06:11:00;29.90;55.30
35027;DHT22;60696;51.426;6.934;2023-07-09T06:13:27;29.80;56.30
35027;DHT22;60696;51.426;6.934;2023-07-09T06:15:54;30.60;53.50
35027;DHT22;60696;51.426;6.934;2023-07-09T06:18:21;31.00;53.80
35027;DHT22;60696;51.426;6.934;2023-07-09T06:20:51;31.30;51.70
35027;DHT22;60696;51.426;6.934;2023-07-09T06:23:17;31.50;51.00
35027;DHT22;60696;51.426;6.934;2023-07-09T06:25:44;31.20;50.70
35027;DHT22;60696;51.426;6.934;2023-07-09T06:28:16;31.50;51.50
35027;DHT22;60696;51.426;6.934;2023-07-09T06:30:42;32.00;50.70
35027;DHT22;60696;51.426;6.934;2023-07-09T06:33:08;32.80;52.10
35027;DHT22;60696;51.426;6.934;2023-07-09T06:35:34;32.70;49.10
35027;DHT22;60696;51.426;6.934;2023-07-09T06:38:00;33.00;49.90
35027;DHT22;60696;51.426;6.934;2023-07-09T06:40:26;31.90;48.20
35027;DHT22;60696;51.426;6.934;2023-07-09T06:42:51;31.90;50.80
35027;DHT22;60696;51.426;6.934;2023-07-09T06:45:17;31.70;52.30
35027;DHT22;60696;51.426;6.934;2023-07-09T06:47:42;32.30;50.10
35027;DHT22;60696;51.426;6.934;2023-07-09T06:50:08;33.10;49.70
35027;DHT22;60696;51.426;6.934;2023-07-09T06:52:34;32.70;46.80
35027;DHT22;60696;51.426;6.934;2023-07-09T06:54:59;33.70;48.80
35027;DHT22;60696;51.426;6.934;2023-07-09T06:57:25;33.00;47.50
35027;DHT22;60696;51.426;6.934;2023-07-09T06:59:50;33.40;46.30
35027;DHT22;60696;51.426;6.934;2023-07-09T07:02:16;33.70;46.60
35027;DHT22;60696;51.426;6.934;2023-07-09T07:04:43;34.60;48.00
35027;DHT22;60696;51.426;6.934;2023-07-09T07:07:08;35.50;42.80
35027;DHT22;60696;51.426;6.934;2023-07-09T07:09:35;34.20;43.90
35027;DHT22;60696;51.426;6.934;2023-07-09T07:12:00;35.00;44.20
35027;DHT22;60696;51.426;6.934;2023-07-09T07:14:26;35.80;42.60
35027;DHT22;60696;51.426;6.934;2023-07-09T07:16:51;34.70;44.80
35027;DHT22;60696;51.426;6.934;2023-07-09T07:19:17;35.10;43.40
35027;DHT22;60696;51.426;6.934;2023-07-09T07:21:42;34.90;43.90
35027;DHT22;60696;51.426;6.934;2023-07-09T07:24:08;35.30;45.60
35027;DHT22;60696;51.426;6.934;2023-07-09T07:26:34;36.10;43.40
35027;DHT22;60696;51.426;6.934;2023-07-09T07:28:59;36.40;41.70
35027;DHT22;60696;51.426;6.934;2023-07-09T07:31:25;37.40;41.40
35027;DHT22;60696;51.426;6.934;2023-07-09T07:33:51;37.10;41.30
35027;DHT22;60696;51.426;6.934;2023-07-09T07:36:16;37.00;39.60
35027;DHT22;60696;51.426;6.934;2023-07-09T07:38:42;36.40;40.40
35027;DHT22;60696;51.426;6.934;2023-07-09T07:41:08;36.50;39.60
35027;DHT22;60696;51.426;6.934;2023-07-09T07:43:33;36.50;41.40
35027;DHT22;60696;51.426;6.934;2023-07-09T07:45:59;37.70;40.90
35027;DHT22;60696;51.426;6.934;2023-07-09T07:48:24;38.70;39.60
35027;DHT22;60696;51.426;6.934;2023-07-09T07:50:50;38.70;37.10
35027;DHT22;60696;51.426;6.934;2023-07-09T07:53:16;38.50;39.60
35027;DHT22;60696;51.426;6.934;2023-07-09T07:55:42;38.80;37.40
35027;DHT22;60696;51.426;6.934;2023-07-09T07:58:12;38.70;36.80
35027;DHT22;60696;51.426;6.934;2023-07-09T08:00:38;38.40;37.30
35027;DHT22;60696;51.426;6.934;2023-07-09T08:03:04;37.90;38.00
35027;DHT22;60696;51.426;6.934;2023-07-09T08:05:30;38.20;37.70
35027;DHT22;60696;51.426;6.934;2023-07-09T08:07:55;39.00;37.10
35027;DHT22;60696;51.426;6.934;2023-07-09T08:10:21;39.00;38.80
35027;DHT22;60696;51.426;6.934;2023-07-09T08:12:47;38.90;38.20
35027;DHT22;60696;51.426;6.934;2023-07-09T08:15:12;38.90;36.60
35027;DHT22;60696;51.426;6.934;2023-07-09T08:17:38;39.20;35.10
35027;DHT22;60696;51.426;6.934;2023-07-09T08:20:04;39.90;35.80
35027;DHT22;60696;51.426;6.934;2023-07-09T08:22:30;40.00;35.20
35027;DHT22;60696;51.426;6.934;2023-07-09T08:24:56;40.00;36.10
35027;DHT22;60696;51.426;6.934;2023-07-09T08:27:21;38.90;35.50
35027;DHT22;60696;51.426;6.934;2023-07-09T08:29:47;40.20;38.20
35027;DHT22;60696;51.426;6.934;2023-07-09T08:32:13;41.00;38.00
35027;DHT22;60696;51.426;6.934;2023-07-09T08:34:40;40.90;34.00
35027;DHT22;60696;51.426;6.934;2023-07-09T08:37:09;39.40;34.90
35027;DHT22;60696;51.426;6.934;2023-07-09T08:39:35;39.80;36.50
35027;DHT22;60696;51.426;6.934;2023-07-09T08:42:10;39.70;35.10
35027;DHT22;60696;51.426;6.934;2023-07-09T08:48:13;41.10;35.20
35027;DHT22;60696;51.426;6.934;2023-07-09T08:50:45;40.80;35.40
35027;DHT22;60696;51.426;6.934;2023-07-09T08:53:18;41.30;33.10
35027;DHT22;60696;51.426;6.934;2023-07-09T08:55:45;40.80;33.30
35027;DHT22;60696;51.426;6.934;2023-07-09T08:58:23;40.80;31.40
35027;DHT22;60696;51.426;6.934;2023-07-09T09:00:57;40.00;34.80
35027;DHT22;60696;51.426;6.934;2023-07-09T09:03:46;40.60;35.50
35027;DHT22;60696;51.426;6.934;2023-07-09T09:06:15;42.20;34.70
35027;DHT22;60696;51.426;6.934;2023-07-09T09:11:43;42.80;30.40
35027;DHT22;60696;51.426;6.934;2023-07-09T09:14:32;42.40;31.60
35027;DHT22;60696;51.426;6.934;2023-07-09T09:16:58;42.10;32.40
35027;DHT22;60696;51.426;6.934;2023-07-09T09:19:29;42.10;32.80
35027;DHT22;60696;51.426;6.934;2023-07-09T09:22:02;42.50;34.20
35027;DHT22;60696;51.426;6.934;2023-07-09T09:24:58;40.40;32.50
35027;DHT22;60696;51.426;6.934;2023-07-09T09:27:27;39.50;34.90
35027;DHT22;60696;51.426;6.934;2023-07-09T09:29:53;39.40;37.30
35027;DHT22;60696;51.426;6.934;2023-07-09T09:32:29;38.80;35.60
35027;DHT22;60696;51.426;6.934;2023-07-09T09:34:56;39.10;33.90
35027;DHT22;60696;51.426;6.934;2023-07-09T09:37:30;37.90;35.40
35027;DHT22;60696;51.426;6.934;2023-07-09T09:39:58;37.70;39.40
35027;DHT22;60696;51.426;6.934;2023-07-09T09:42:25;37.70;36.70
35027;DHT22;60696;51.426;6.934;2023-07-09T09:44:54;37.50;39.00
35027;DHT22;60696;51.426;6.934;2023-07-09T09:47:20;37.60;39.20
35027;DHT22;60696;51.426;6.934;2023-07-09T09:49:45;37.70;38.40
35027;DHT22;60696;51.426;6.934;2023-07-09T09:52:18;37.60;36.90
35027;DHT22;60696;51.426;6.934;2023-07-09T09:54:52;37.20;36.90
35027;DHT22;60696;51.426;6.934;2023-07-09T09:57:24;36.70;37.20
35027;DHT22;60696;51.426;6.934;2023-07-09T09:59:50;36.30;44.30
35027;DHT22;60696;51.426;6.934;2023-07-09T10:02:23;36.60;43.90
35027;DHT22;60696;51.426;6.934;2023-07-09T10:04:50;36.80;39.00
35027;DHT22;60696;51.426;6.934;2023-07-09T10:07:39;36.50;38.20
35027;DHT22;60696;51.426;6.934;2023-07-09T10:10:18;36.70;42.70
35027;DHT22;60696;51.426;6.934;2023-07-09T10:12:53;36.90;36.50
35027;DHT22;60696;51.426;6.934;2023-07-09T10:15:39;36.10;41.10
35027;DHT22;60696;51.426;6.934;2023-07-09T10:21:25;36.00;36.70
35027;DHT22;60696;51.426;6.934;2023-07-09T10:26:36;36.20;37.30
35027;DHT22;60696;51.426;6.934;2023-07-09T10:32:22;35.90;38.50
35027;DHT22;60696;51.426;6.934;2023-07-09T10:40:11;36.10;39.50
35027;DHT22;60696;51.426;6.934;2023-07-09T13:06:30;35.40;36.00
35027;DHT22;60696;51.426;6.934;2023-07-09T13:09:00;35.10;41.70
35027;DHT22;60696;51.426;6.934;2023-07-09T13:11:32;35.10;37.20
35027;DHT22;60696;51.426;6.934;2023-07-09T13:14:02;35.10;37.90
35027;DHT22;60696;51.426;6.934;2023-07-09T13:16:28;35.00;39.40
35027;DHT22;60696;51.426;6.934;2023-07-09T13:18:57;35.20;41.40
35027;DHT22;60696;51.426;6.934;2023-07-09T13:21:23;35.10;40.00
35027;DHT22;60696;51.426;6.934;2023-07-09T13:23:48;35.10;39.80
35027;DHT22;60696;51.426;6.934;2023-07-09T13:26:17;35.10;42.10
35027;DHT22;60696;51.426;6.934;2023-07-09T13:28:43;35.10;41.80
35027;DHT22;60696;51.426;6.934;2023-07-09T13:31:14;35.00;40.30
35027;DHT22;60696;51.426;6.934;2023-07-09T13:33:50;34.90;41.00
35027;DHT22;60696;51.426;6.934;2023-07-09T13:36:15;34.80;39.50
35027;DHT22;60696;51.426;6.934;2023-07-09T13:38:41;34.80;39.10
35027;DHT22;60696;51.426;6.934;2023-07-09T13:41:13;34.80;42.40
35027;DHT22;60696;51.426;6.934;2023-07-09T13:43:43;34.60;40.00
35027;DHT22;60696;51.426;6.934;2023-07-09T13:46:09;34.20;39.70
35027;DHT22;60696;51.426;6.934;2023-07-09T13:48:37;34.00;42.70
35027;DHT22;60696;51.426;6.934;2023-07-09T13:51:23;33.90;41.40
35027;DHT22;60696;51.426;6.934;2023-07-09T13:53:51;33.90;45.40
35027;DHT22;60696;51.426;6.934;2023-07-09T13:56:17;33.80;46.40
35027;DHT22;60696;51.426;6.934;2023-07-09T13:58:42;33.40;42.20
35027;DHT22;60696;51.426;6.934;2023-07-09T14:01:15;33.00;49.40
35027;DHT22;60696;51.426;6.934;2023-07-09T14:03:41;32.10;61.20
35027;DHT22;60696;51.426;6.934;2023-07-09T14:06:15;31.10;75.30
35027;DHT22;60696;51.426;6.934;2023-07-09T14:08:41;30.10;85.00
35027;DHT22;60696;51.426;6.934;2023-07-09T14:11:15;29.10;80.20
35027;DHT22;60696;51.426;6.934;2023-07-09T14:13:41;26.30;98.70
35027;DHT22;60696;51.426;6.934;2023-07-09T14:16:10;23.90;99.90
35027;DHT22;60696;51.426;6.934;2023-07-09T14:18:36;22.20;99.90
35027;DHT22;60696;51.426;6.934;2023-07-09T14:21:11;21.10;99.90
35027;DHT22;60696;51.426;6.934;2023-07-09T14:23:38;20.40;99.90
35027;DHT22;60696;51.426;6.934;2023-07-09T14:26:04;20.10;99.90
35027;DHT22;60696;51.426;6.934;2023-07-09T14:28:30;20.20;99.90
35027;DHT22;60696;51.426;6.934;2023-07-09T14:30:56;21.20;99.90
35027;DHT22;60696;51.426;6.934;2023-07-09T14:33:23;21.70;99.90
35027;DHT22;60696;51.426;6.934;2023-07-09T14:35:49;22.00;99.90
35027;DHT22;60696;51.426;6.934;2023-07-09T14:38:21;22.10;99.90
35027;DHT22;60696;51.426;6.934;2023-07-09T14:40:48;22.10;99.90
35027;DHT22;60696;51.426;6.934;2023-07-09T14:43:15;22.00;99.90
35027;DHT22;60696;51.426;6.934;2023-07-09T14:45:41;21.90;99.90
35027;DHT22;60696;51.426;6.934;2023-07-09T14:48:14;21.90;99.90
35027;DHT22;60696;51.426;6.934;2023-07-09T14:50:41;21.90;99.90
35027;DHT22;60696;51.426;6.934;2023-07-09T14:53:25;21.50;99.90
35027;DHT22;60696;51.426;6.934;2023-07-09T14:55:55;21.70;99.90
35027;DHT22;60696;51.426;6.934;2023-07-09T14:58:22;21.60;99.90
35027;DHT22;60696;51.426;6.934;2023-07-09T15:00:49;21.70;99.90
35027;DHT22;60696;51.426;6.934;2023-07-09T15:03:27;21.80;99.90
35027;DHT22;60696;51.426;6.934;2023-07-09T15:05:53;21.70;99.90
35027;DHT22;60696;51.426;6.934;2023-07-09T15:08:23;21.50;99.90
35027;DHT22;60696;51.426;6.934;2023-07-09T15:10:51;21.40;99.90
35027;DHT22;60696;51.426;6.934;2023-07-09T15:13:32;21.40;99.90
35027;DHT22;60696;51.426;6.934;2023-07-09T15:16:02;21.50;99.90
35027;DHT22;60696;51.426;6.934;2023-07-09T15:18:28;21.50;99.90
35027;DHT22;60696;51.426;6.934;2023-07-09T15:20:58;21.60;99.90
35027;DHT22;60696;51.426;6.934;2023-07-09T15:23:26;21.80;99.90
35027;DHT22;60696;51.426;6.934;2023-07-09T15:25:52;21.70;99.90
35027;DHT22;60696;51.426;6.934;2023-07-09T15:28:18;21.50;99.90
35027;DHT22;60696;51.426;6.934;2023-07-09T15:30:44;21.50;99.90
35027;DHT22;60696;51.426;6.934;2023-07-09T15:33:17;21.50;99.90
35027;DHT22;60696;51.426;6.934;2023-07-09T15:35:45;21.50;99.90
35027;DHT22;60696;51.426;6.934;2023-07-09T15:38:27;21.30;99.90
35027;DHT22;60696;51.426;6.934;2023-07-09T15:40:54;21.30;99.90
35027;DHT22;60696;51.426;6.934;2023-07-09T15:43:19;21.40;99.90
35027;DHT22;60696;51.426;6.934;2023-07-09T15:45:47;21.40;99.90
35027;DHT22;60696;51.426;6.934;2023-07-09T15:48:33;21.30;99.90
35027;DHT22;60696;51.426;6.934;2023-07-09T15:51:03;21.30;99.90
35027;DHT22;60696;51.426;6.934;2023-07-09T15:53:30;21.40;99.90
35027;DHT22;60696;51.426;6.934;2023-07-09T15:56:01;21.50;99.90
35027;DHT22;60696;51.426;6.934;2023-07-09T15:58:37;21.60;99.90
35027;DHT22;60696;51.426;6.934;2023-07-09T16:01:04;21.40;99.90
35027;DHT22;60696;51.426;6.934;2023-07-09T16:03:31;21.70;99.90
35027;DHT22;60696;51.426;6.934;2023-07-09T16:05:57;21.70;99.90
35027;DHT22;60696;51.426;6.934;2023-07-09T16:08:22;21.80;99.90
35027;DHT22;60696;51.426;6.934;2023-07-09T16:10:48;22.00;99.90
35027;DHT22;60696;51.426;6.934;2023-07-09T16:13:23;22.10;99.90
35027;DHT22;60696;51.426;6.934;2023-07-09T16:15:49;22.20;99.90
35027;DHT22;60696;51.426;6.934;2023-07-09T16:18:15;22.30;99.90
35027;DHT22;60696;51.426;6.934;2023-07-09T16:20:41;22.40;99.90
35027;DHT22;60696;51.426;6.934;2023-07-09T16:23:16;22.40;99.90
35027;DHT22;60696;51.426;6.934;2023-07-09T16:25:42;22.50;99.90
35027;DHT22;60696;51.426;6.934;2023-07-09T16:28:13;22.40;99.90
35027;DHT22;60696;51.426;6.934;2023-07-09T16:30:38;22.40;99.90
35027;DHT22;60696;51.426;6.934;2023-07-09T16:33:04;22.50;99.90
35027;DHT22;60696;51.426;6.934;2023-07-09T16:35:30;22.50;99.90
35027;DHT22;60696;51.426;6.934;2023-07-09T16:37:56;22.70;99.90
35027;DHT22;60696;51.426;6.934;2023-07-09T16:40:25;22.60;99.90
35027;DHT22;60696;51.426;6.934;2023-07-09T16:42:52;22.70;99.90
35027;DHT22;60696;51.426;6.934;2023-07-09T16:45:19;22.70;99.90
35027;DHT22;60696;51.426;6.934;2023-07-09T16:47:46;22.70;99.90
35027;DHT22;60696;51.426;6.934;2023-07-09T16:50:23;22.70;99.90
35027;DHT22;60696;51.426;6.934;2023-07-09T16:52:50;22.70;99.90
35027;DHT22;60696;51.426;6.934;2023-07-09T16:55:18;22.80;99.90
35027;DHT22;60696;51.426;6.934;2023-07-09T16:57:47;22.80;99.90
35027;DHT22;60696;51.426;6.934;2023-07-09T17:00:35;22.90;99.90
35027;DHT22;60696;51.426;6.934;2023-07-09T17:03:04;22.90;99.90
35027;DHT22;60696;51.426;6.934;2023-07-09T17:05:30;23.10;99.90
35027;DHT22;60696;51.426;6.934;2023-07-09T17:07:56;23.30;99.90
35027;DHT22;60696;51.426;6.934;2023-07-09T17:10:22;23.00;99.90
35027;DHT22;60696;51.426;6.934;2023-07-09T17:12:57;23.00;99.90
35027;DHT22;60696;51.426;6.934;2023-07-09T17:15:30;23.10;99.90
35027;DHT22;60696;51.426;6.934;2023-07-09T17:17:57;23.30;99.90
35027;DHT22;60696;51.426;6.934;2023-07-09T17:20:26;23.10;99.90
35027;DHT22;60696;51.426;6.934;2023-07-09T17:22:53;23.30;99.90
35027;DHT22;60696;51.426;6.934;2023-07-09T17:25:37;23.40;99.90
35027;DHT22;60696;51.426;6.934;2023-07-09T17:28:17;23.60;99.90
35027;DHT22;60696;51.426;6.934;2023-07-09T17:30:44;23.70;99.90
35027;DHT22;60696;51.426;6.934;2023-07-09T17:33:10;23.50;99.90
35027;DHT22;60696;51.426;6.934;2023-07-09T17:35:40;23.50;99.90
35027;DHT22;60696;51.426;6.934;2023-07-09T17:38:13;23.30;99.90
35027;DHT22;60696;51.426;6.934;2023-07-09T17:40:40;23.20;99.90
35027;DHT22;60696;51.426;6.934;2023-07-09T17:43:18;23.00;99.90
35027;DHT22;60696;51.426;6.934;2023-07-09T17:45:44;23.20;99.90
35027;DHT22;60696;51.426;6.934;2023-07-09T17:48:15;23.40;99.90
35027;DHT22;60696;51.426;6.934;2023-07-09T17:50:44;23.60;99.90
35027;DHT22;60696;51.426;6.934;2023-07-09T17:53:28;23.70;99.90
35027;DHT22;60696;51.426;6.934;2023-07-09T17:55:54;23.70;99.90
35027;DHT22;60696;51.426;6.934;2023-07-09T18:00:48;23.60;99.90
35027;DHT22;60696;51.426;6.934;2023-07-09T18:03:15;23.70;99.90
35027;DHT22;60696;51.426;6.934;2023-07-09T18:05:41;23.80;99.90
35027;DHT22;60696;51.426;6.934;2023-07-09T18:08:09;23.80;99.90
35027;DHT22;60696;51.426;6.934;2023-07-09T18:10:39;23.80;99.90
35027;DHT22;60696;51.426;6.934;2023-07-09T18:13:09;24.00;99.90
35027;DHT22;60696;51.426;6.934;2023-07-09T18:15:36;24.00;99.90
35027;DHT22;60696;51.426;6.934;2023-07-09T18:18:03;24.00;99.90
35027;DHT22;60696;51.426;6.934;2023-07-09T18:20:30;23.80;99.90
35027;DHT22;60696;51.426;6.934;2023-07-09T18:22:56;23.90;99.90
35027;DHT22;60696;51.426;6.934;2023-07-09T18:25:23;24.00;99.90
35027;DHT22;60696;51.426;6.934;2023-07-09T18:27:52;24.00;99.90
35027;DHT22;60696;51.426;6.934;2023-07-09T18:30:41;24.10;99.90
35027;DHT22;60696;51.426;6.934;2023-07-09T18:33:09;24.00;99.90
35027;DHT22;60696;51.426;6.934;2023-07-09T18:35:37;24.10;99.90
35027;DHT22;60696;51.426;6.934;2023-07-09T18:38:07;24.20;99.90
35027;DHT22;60696;51.426;6.934;2023-07-09T18:40:43;24.20;99.90
35027;DHT22;60696;51.426;6.934;2023-07-09T18:43:14;24.20;99.90
35027;DHT22;60696;51.426;6.934;2023-07-09T18:45:40;24.10;99.90
35027;DHT22;60696;51.426;6.934;2023-07-09T18:48:14;24.20;99.90
35027;DHT22;60696;51.426;6.934;2023-07-09T18:50:40;24.20;99.90
35027;DHT22;60696;51.426;6.934;2023-07-09T18:53:11;24.10;99.90
35027;DHT22;60696;51.426;6.934;2023-07-09T18:55:37;24.10;99.90
35027;DHT22;60696;51.426;6.934;2023-07-09T18:58:14;24.00;99.90
35027;DHT22;60696;51.426;6.934;2023-07-09T19:00:42;24.00;99.90
35027;DHT22;60696;51.426;6.934;2023-07-09T19:03:12;23.80;99.90
35027;DHT22;60696;51.426;6.934;2023-07-09T19:05:39;23.80;99.90
35027;DHT22;60696;51.426;6.934;2023-07-09T19:08:19;23.70;99.90
35027;DHT22;60696;51.426;6.934;2023-07-09T19:10:45;23.70;99.90
35027;DHT22;60696;51.426;6.934;2023-07-09T19:13:11;23.60;99.90
35027;DHT22;60696;51.426;6.934;2023-07-09T19:15:37;23.60;99.90
35027;DHT22;60696;51.426;6.934;2023-07-09T19:18:04;23.70;99.90
35027;DHT22;60696;51.426;6.934;2023-07-09T19:20:32;23.60;99.90
35027;DHT22;60696;51.426;6.934;2023-07-09T19:22:59;23.60;99.90
35027;DHT22;60696;51.426;6.934;2023-07-09T19:25:28;23.60;99.90
35027;DHT22;60696;51.426;6.934;2023-07-09T19:28:00;23.60;99.90
35027;DHT22;60696;51.426;6.934;2023-07-09T19:30:32;23.50;99.90
35027;DHT22;60696;51.426;6.934;2023-07-09T19:32:58;23.50;99.90
35027;DHT22;60696;51.426;6.934;2023-07-09T19:35:26;23.40;99.90
35027;DHT22;60696;51.426;6.934;2023-07-09T19:37:53;23.30;99.90
35027;DHT22;60696;51.426;6.934;2023-07-09T19:40:23;23.30;99.90
35027;DHT22;60696;51.426;6.934;2023-07-09T19:42:50;23.40;99.90
35027;DHT22;60696;51.426;6.934;2023-07-09T19:45:18;23.30;99.90
35027;DHT22;60696;51.426;6.934;2023-07-09T19:47:45;23.30;99.90
35027;DHT22;60696;51.426;6.934;2023-07-09T19:50:29;23.20;99.90
35027;DHT22;60696;51.426;6.934;2023-07-09T19:52:58;23.20;99.90
35027;DHT22;60696;51.426;6.934;2023-07-09T19:55:27;23.10;99.90
35027;DHT22;60696;51.426;6.934;2023-07-09T19:57:53;23.00;99.90
35027;DHT22;60696;51.426;6.934;2023-07-09T20:00:21;23.00;99.90
35027;DHT22;60696;51.426;6.934;2023-07-09T20:02:47;22.90;99.90
35027;DHT22;60696;51.426;6.934;2023-07-09T20:05:21;23.00;99.90
35027;DHT22;60696;51.426;6.934;2023-07-09T20:07:53;23.00;99.90
35027;DHT22;60696;51.426;6.934;2023-07-09T20:10:19;22.90;99.90
35027;DHT22;60696;51.426;6.934;2023-07-09T20:12:50;22.90;99.90
35027;DHT22;60696;51.426;6.934;2023-07-09T20:15:26;22.90;99.90
35027;DHT22;60696;51.426;6.934;2023-07-09T20:17:54;22.90;99.90
35027;DHT22;60696;51.426;6.934;2023-07-09T20:20:21;22.90;99.90
35027;DHT22;60696;51.426;6.934;2023-07-09T20:22:47;22.90;99.90
35027;DHT22;60696;51.426;6.934;2023-07-09T20:25:22;22.70;99.90
35027;DHT22;60696;51.426;6.934;2023-07-09T20:27:49;22.70;99.90
35027;DHT22;60696;51.426;6.934;2023-07-09T20:30:17;22.70;99.90
35027;DHT22;60696;51.426;6.934;2023-07-09T20:32:44;22.60;99.90
35027;DHT22;60696;51.426;6.934;2023-07-09T20:37:41;22.60;99.90
35027;DHT22;60696;51.426;6.934;2023-07-09T20:40:12;22.60;99.90
35027;DHT22;60696;51.426;6.934;2023-07-09T20:42:38;22.50;99.90
35027;DHT22;60696;51.426;6.934;2023-07-09T20:45:28;22.40;99.90
35027;DHT22;60696;51.426;6.934;2023-07-09T20:47:54;22.30;99.90
35027;DHT22;60696;51.426;6.934;2023-07-09T20:50:21;22.30;99.90
35027;DHT22;60696;51.426;6.934;2023-07-09T20:52:48;22.30;99.90
35027;DHT22;60696;51.426;6.934;2023-07-09T20:55:16;22.20;99.90
35027;DHT22;60696;51.426;6.934;2023-07-09T20:57:44;22.20;99.90
35027;DHT22;60696;51.426;6.934;2023-07-09T21:00:13;22.20;99.90
35027;DHT22;60696;51.426;6.934;2023-07-09T21:02:39;22.30;99.90
35027;DHT22;60696;51.426;6.934;2023-07-09T21:05:05;22.30;99.90
35027;DHT22;60696;51.426;6.934;2023-07-09T21:07:31;22.30;99.90
35027;DHT22;60696;51.426;6.934;2023-07-09T21:09:56;22.30;99.90
35027;DHT22;60696;51.426;6.934;2023-07-09T21:12:22;22.30;99.90
35027;DHT22;60696;51.426;6.934;2023-07-09T21:14:48;22.30;99.90
35027;DHT22;60696;51.426;6.934;2023-07-09T21:17:17;22.30;99.90
35027;DHT22;60696;51.426;6.934;2023-07-09T21:19:43;22.20;99.90
35027;DHT22;60696;51.426;6.934;2023-07-09T21:22:11;22.20;99.90
35027;DHT22;60696;51.426;6.934;2023-07-09T21:24:38;22.10;99.90
35027;DHT22;60696;51.426;6.934;2023-07-09T21:27:05;22.20;99.90
35027;DHT22;60696;51.426;6.934;2023-07-09T21:29:31;22.20;99.90
35027;DHT22;60696;51.426;6.934;2023-07-09T21:31:59;22.10;99.90
35027;DHT22;60696;51.426;6.934;2023-07-09T21:34:28;22.10;99.90
35027;DHT22;60696;51.426;6.934;2023-07-09T21:36:55;22.10;99.90
35027;DHT22;60696;51.426;6.934;2023-07-09T21:39:23;22.20;99.90
35027;DHT22;60696;51.426;6.934;2023-07-09T21:41:51;22.10;99.90
35027;DHT22;60696;51.426;6.934;2023-07-09T21:44:28;22.10;99.90
35027;DHT22;60696;51.426;6.934;2023-07-09T21:46:57;22.10;99.90
35027;DHT22;60696;51.426;6.934;2023-07-09T21:49:28;22.10;99.90
35027;DHT22;60696;51.426;6.934;2023-07-09T21:51:55;22.10;99.90
35027;DHT22;60696;51.426;6.934;2023-07-09T21:56:47;22.00;99.90
35027;DHT22;60696;51.426;6.934;2023-07-09T21:59:13;22.00;99.90
